Time;durP1;ratioP1;P1;durP2;ratioP2;P2;SDS_P1;SDS_P2;PMS_P1;PMS_P2;Temp;Humidity;BMP_temperature;BMP_pressure;BME280_temperature;BME280_humidity;BME280_pressure;Samples;Min_cycle;Max_cycle;Signal;HPM_P1;HPM_P2
2022/06/24 00:02:01;;;;;;;3.28;2.95;;;;;;;19.72;85.42;99909.75;6132998;28;20047;-90
2022/06/24 00:05:12;;;;;;;3.80;2.65;;;;;;;19.67;85.73;99899.00;6127452;28;20039;-90
2022/06/24 00:08:15;;;;;;;3.42;2.95;;;;;;;19.61;86.99;99894.53;6133717;28;20050;-90
2022/06/24 00:11:28;;;;;;;3.80;2.80;;;;;;;19.53;85.96;99895.50;6131326;29;20046;-90
2022/06/24 00:14:31;;;;;;;2.83;2.60;;;;;;;19.47;86.91;99885.78;6130560;29;20051;-90
2022/06/24 00:17:33;;;;;;;3.10;2.80;;;;;;;19.42;87.48;99887.38;6126264;29;20044;-90
2022/06/24 00:20:50;;;;;;;3.95;2.75;;;;;;;19.39;88.59;99885.94;6128315;28;20465;-91
2022/06/24 00:23:52;;;;;;;4.78;2.97;;;;;;;19.36;88.39;99883.72;6137055;28;20840;-90
2022/06/24 00:26:54;;;;;;;3.22;2.80;;;;;;;19.33;87.79;99876.22;6124195;28;20208;-90
2022/06/24 00:29:56;;;;;;;3.20;2.90;;;;;;;19.27;87.76;99874.38;6117520;29;20046;-90
2022/06/24 00:33:19;;;;;;;5.50;3.10;;;;;;;19.23;88.49;99878.38;6135001;28;20047;-90
2022/06/24 00:36:21;;;;;;;3.38;2.72;;;;;;;19.16;89.68;99867.88;6135454;29;20039;-90
2022/06/24 00:39:38;;;;;;;3.30;2.90;;;;;;;19.15;88.98;99867.06;6137605;28;20186;-91
2022/06/24 00:42:47;;;;;;;4.60;3.28;;;;;;;19.15;89.01;99856.56;6140357;28;20130;-90
2022/06/24 00:45:55;;;;;;;3.78;2.88;;;;;;;19.18;88.43;99865.03;6129708;28;20043;-90
2022/06/24 00:48:58;;;;;;;5.10;3.40;;;;;;;19.19;88.82;99856.97;6138702;28;20031;-90
2022/06/24 00:52:07;;;;;;;5.95;2.85;;;;;;;19.15;88.81;99864.44;6140846;28;20098;-91
2022/06/24 00:55:09;;;;;;;5.30;2.72;;;;;;;19.12;88.42;99856.13;6142243;28;20047;-90
2022/06/24 00:58:16;;;;;;;3.47;2.80;;;;;;;19.10;88.51;99848.44;6135481;28;20044;-90
2022/06/24 01:01:35;;;;;;;3.28;3.00;;;;;;;19.11;87.98;99841.41;6138296;29;20097;-90
2022/06/24 01:04:37;;;;;;;9.07;3.03;;;;;;;19.13;87.76;99847.28;6132988;29;20569;-90
2022/06/24 01:07:40;;;;;;;5.03;2.90;;;;;;;19.13;87.14;99842.81;6130686;29;20577;-91
2022/06/24 01:10:47;;;;;;;4.47;2.95;;;;;;;19.13;86.38;99840.19;6126460;29;20796;-91
2022/06/24 01:13:50;;;;;;;3.03;2.80;;;;;;;19.13;86.93;99842.03;6126005;29;20525;-91
2022/06/24 01:16:52;;;;;;;3.22;2.92;;;;;;;19.10;86.45;99831.88;6129003;28;20050;-90
2022/06/24 01:19:54;;;;;;;4.35;3.30;;;;;;;19.10;86.65;99827.44;6140419;29;20082;-91
2022/06/24 01:22:56;;;;;;;3.40;3.10;;;;;;;19.07;86.77;99833.09;6134390;28;20559;-91
2022/06/24 01:25:58;;;;;;;3.97;3.40;;;;;;;19.05;86.44;99832.47;6138252;29;20054;-91
2022/06/24 01:29:00;;;;;;;3.45;3.10;;;;;;;19.02;86.57;99830.25;6133762;28;20121;-90
2022/06/24 01:32:02;;;;;;;4.00;3.13;;;;;;;19.01;87.68;99831.25;6137757;28;20413;-91
2022/06/24 01:35:05;;;;;;;3.42;3.13;;;;;;;18.98;88.98;99823.78;6146800;28;20500;-91
2022/06/24 01:38:07;;;;;;;4.18;3.47;;;;;;;18.98;88.72;99831.66;6133734;28;20039;-91
2022/06/24 01:41:09;;;;;;;5.55;3.53;;;;;;;18.94;88.43;99817.28;6132178;28;20103;-91
2022/06/24 01:44:11;;;;;;;4.28;3.75;;;;;;;18.89;88.21;99810.00;6126024;28;20054;-90
2022/06/24 01:47:13;;;;;;;6.05;3.40;;;;;;;18.86;88.77;99799.91;6132529;28;20040;-90
2022/06/24 01:50:15;;;;;;;3.88;3.53;;;;;;;18.83;89.53;99795.03;6130539;29;20043;-90
2022/06/24 01:53:17;;;;;;;4.80;4.40;;;;;;;18.84;88.94;99795.84;6133473;28;20508;-90
2022/06/24 01:56:20;;;;;;;4.35;3.35;;;;;;;18.80;87.76;99790.16;6129913;29;20517;-90
2022/06/24 01:59:22;;;;;;;4.15;3.33;;;;;;;18.80;87.49;99784.91;6138071;29;20552;-91
2022/06/24 02:02:24;;;;;;;5.47;3.53;;;;;;;18.78;87.10;99778.25;6127060;28;20039;-91
2022/06/24 02:05:27;;;;;;;5.47;3.50;;;;;;;18.75;86.51;99781.22;6126865;29;20529;-90
2022/06/24 02:08:29;;;;;;;4.85;3.70;;;;;;;18.72;87.60;99777.19;6127219;28;20044;-91
2022/06/24 02:14:54;;;;;;;4.30;3.42;;;;;;;18.62;87.64;99781.97;6138633;29;20210;-91
2022/06/24 02:17:56;;;;;;;3.90;3.50;;;;;;;18.59;88.79;99774.50;6133169;28;20037;-90
2022/06/24 02:20:59;;;;;;;4.10;3.13;;;;;;;18.59;87.36;99775.28;6130104;28;20039;-90
2022/06/24 02:24:01;;;;;;;4.05;2.85;;;;;;;18.58;87.51;99772.84;6134490;28;20090;-90
2022/06/24 02:27:03;;;;;;;4.45;3.50;;;;;;;18.52;88.52;99782.31;6137599;28;20035;-91
2022/06/24 02:30:06;;;;;;;3.90;3.13;;;;;;;18.44;89.26;99769.34;6137180;29;20035;-90
2022/06/24 02:33:09;;;;;;;5.25;3.95;;;;;;;18.39;89.78;99767.28;6118350;28;20160;-90
2022/06/24 02:36:11;;;;;;;3.70;3.40;;;;;;;18.35;90.11;99754.75;6130973;29;20541;-90
2022/06/24 02:39:12;;;;;;;4.88;3.40;;;;;;;18.30;91.35;99758.75;6117291;29;20095;-90
2022/06/24 02:42:14;;;;;;;3.95;3.58;;;;;;;18.30;90.68;99755.34;6127212;29;20123;-90
2022/06/24 02:45:16;;;;;;;5.45;3.47;;;;;;;18.32;88.38;99755.16;6119182;29;20510;-90
2022/06/24 02:48:20;;;;;;;4.38;3.50;;;;;;;18.35;89.97;99750.31;6132151;29;20046;-90
2022/06/24 02:51:22;;;;;;;4.22;3.42;;;;;;;18.37;88.76;99747.53;6133003;28;20044;-90
2022/06/24 02:54:24;;;;;;;4.18;3.47;;;;;;;18.34;89.79;99740.06;6117490;29;20040;-90
2022/06/24 02:57:26;;;;;;;4.22;3.83;;;;;;;18.32;89.40;99748.09;6149355;28;20048;-91
2022/06/24 03:00:28;;;;;;;4.28;3.88;;;;;;;18.34;89.83;99742.69;6135311;29;20043;-90
2022/06/24 03:03:31;;;;;;;5.05;3.83;;;;;;;18.36;89.75;99736.25;6135153;29;20127;-90
2022/06/24 03:06:33;;;;;;;4.10;3.70;;;;;;;18.38;90.16;99736.84;6132190;28;20039;-90
2022/06/24 03:09:35;;;;;;;4.40;3.55;;;;;;;18.41;89.96;99735.63;6135836;28;20525;-90
2022/06/24 03:12:37;;;;;;;3.95;3.45;;;;;;;18.45;90.18;99734.28;6136308;28;20051;-90
2022/06/24 03:15:39;;;;;;;3.97;3.67;;;;;;;18.50;90.15;99731.88;6085899;28;1391498;-90
2022/06/24 03:18:41;;;;;;;6.45;3.97;;;;;;;18.55;89.37;99733.94;6130869;29;20047;-90
2022/06/24 03:21:43;;;;;;;5.07;3.92;;;;;;;18.62;89.49;99735.59;6135268;28;20043;-91
2022/06/24 03:24:45;;;;;;;4.53;3.78;;;;;;;18.67;88.35;99741.06;6134670;28;20397;-90
2022/06/24 03:27:47;;;;;;;4.30;3.50;;;;;;;18.70;87.87;99738.03;6126867;29;20043;-90
2022/06/24 03:30:49;;;;;;;4.55;3.50;;;;;;;18.79;87.19;99732.69;6133870;28;20780;-90
2022/06/24 03:33:51;;;;;;;4.45;3.63;;;;;;;18.91;86.62;99728.50;6120377;29;20050;-90
2022/06/24 03:36:53;;;;;;;6.43;3.90;;;;;;;19.01;86.54;99734.19;6136637;28;20047;-91
2022/06/24 03:39:56;;;;;;;5.28;3.83;;;;;;;19.11;87.32;99725.97;6135901;28;20051;-90
2022/06/24 03:42:58;;;;;;;3.83;3.53;;;;;;;19.22;86.36;99729.81;6122391;28;20106;-90
2022/06/24 03:46:05;;;;;;;7.55;3.83;;;;;;;19.31;84.92;99718.97;6131919;28;20566;-90
2022/06/24 03:49:08;;;;;;;7.03;3.60;;;;;;;19.44;83.45;99712.13;6134137;29;20051;-91
2022/06/24 03:52:11;;;;;;;4.40;3.88;;;;;;;19.56;83.50;99715.78;6136943;28;20122;-90
2022/06/24 03:55:13;;;;;;;4.93;3.90;;;;;;;19.68;81.46;99718.66;6125338;29;20039;-90
2022/06/24 03:58:14;;;;;;;5.40;3.63;;;;;;;19.79;81.08;99712.81;6129102;29;20050;-91
2022/06/24 04:01:16;;;;;;;4.38;3.97;;;;;;;19.90;82.06;99714.00;6132529;28;20043;-90
2022/06/24 04:04:19;;;;;;;4.20;3.67;;;;;;;19.97;81.99;99715.66;6133355;28;20609;-91
2022/06/24 04:07:21;;;;;;;3.90;3.60;;;;;;;19.99;81.75;99728.56;6132738;29;20046;-90
2022/06/24 04:10:23;;;;;;;5.57;3.75;;;;;;;19.95;80.11;99714.22;6129294;28;20043;-91
2022/06/24 04:13:25;;;;;;;4.82;3.85;;;;;;;19.89;81.39;99721.09;6129391;28;20090;-90
2022/06/24 04:16:28;;;;;;;4.53;3.85;;;;;;;19.84;83.30;99717.44;6134410;29;20129;-90
2022/06/24 04:19:30;;;;;;;5.38;4.20;;;;;;;19.78;84.45;99719.06;6136251;29;20142;-91
2022/06/24 04:22:32;;;;;;;4.10;3.50;;;;;;;19.70;83.68;99704.31;6135148;28;20123;-90
2022/06/24 04:25:35;;;;;;;4.03;3.63;;;;;;;19.66;84.80;99712.78;6130115;28;20272;-90
2022/06/24 04:28:37;;;;;;;9.52;4.40;;;;;;;19.65;84.52;99708.50;6125327;29;20043;-90
2022/06/24 04:31:40;;;;;;;3.83;3.53;;;;;;;19.64;85.84;99702.44;6117336;29;20082;-91
2022/06/24 04:34:42;;;;;;;5.60;3.75;;;;;;;19.64;86.66;99714.78;6127511;28;20091;-91
2022/06/24 04:37:44;;;;;;;3.92;3.63;;;;;;;19.62;87.10;99722.84;6127815;29;20055;-90
2022/06/24 04:40:46;;;;;;;5.80;3.80;;;;;;;19.63;88.15;99727.09;6134316;29;20054;-90
2022/06/24 04:43:48;;;;;;;5.15;3.88;;;;;;;19.66;86.89;99731.94;6122467;28;20585;-90
2022/06/24 04:46:50;;;;;;;6.78;3.90;;;;;;;19.69;86.14;99721.06;6134007;29;20214;-90
2022/06/24 04:49:52;;;;;;;5.55;3.95;;;;;;;19.74;86.51;99723.09;6125815;28;20057;-91
2022/06/24 04:52:54;;;;;;;4.78;3.92;;;;;;;19.83;85.66;99714.03;6125526;29;20062;-91
2022/06/24 04:55:56;;;;;;;4.70;3.75;;;;;;;19.97;83.35;99715.66;6129409;28;20603;-91
2022/06/24 04:58:58;;;;;;;5.28;3.85;;;;;;;20.05;82.81;99714.63;6134446;28;20039;-90
2022/06/24 05:02:00;;;;;;;3.95;3.53;;;;;;;20.11;84.14;99710.38;6125434;28;20043;-91
2022/06/24 05:05:10;;;;;;;5.35;4.18;;;;;;;20.25;84.85;99714.63;6118029;29;20056;-90
2022/06/24 05:08:12;;;;;;;4.07;3.72;;;;;;;20.38;85.00;99706.69;6128883;29;20043;-91
2022/06/24 05:11:14;;;;;;;5.43;3.83;;;;;;;20.57;84.46;99723.47;6129076;29;20051;-90
2022/06/24 05:14:17;;;;;;;3.70;3.40;;;;;;;20.85;83.75;99715.28;6117978;29;20054;-90
2022/06/24 05:17:19;;;;;;;4.15;3.72;;;;;;;21.20;75.68;99722.81;6137161;28;20043;-91
2022/06/24 05:20:21;;;;;;;4.05;3.65;;;;;;;21.49;73.01;99720.69;6138138;28;20094;-91
2022/06/24 05:23:23;;;;;;;3.67;3.28;;;;;;;21.75;70.51;99729.41;6138698;29;20077;-91
2022/06/24 05:26:25;;;;;;;3.70;3.40;;;;;;;21.92;70.85;99722.59;6141241;28;20046;-91
2022/06/24 05:29:27;;;;;;;4.22;3.83;;;;;;;22.04;72.39;99727.97;6137928;29;20145;-91
2022/06/24 05:32:30;;;;;;;3.92;3.55;;;;;;;22.11;72.19;99731.34;6132051;28;20126;-91
2022/06/24 05:35:33;;;;;;;3.55;3.25;;;;;;;22.23;71.68;99727.00;6139999;28;20042;-91
2022/06/24 05:38:36;;;;;;;5.45;3.80;;;;;;;22.44;70.53;99720.53;6138704;29;20287;-91
2022/06/24 05:41:43;;;;;;;4.38;3.45;;;;;;;22.64;70.80;99724.78;6140596;29;20174;-91
2022/06/24 05:44:45;;;;;;;5.70;3.83;;;;;;;22.83;70.03;99721.13;6139934;29;20058;-90
2022/06/24 05:47:47;;;;;;;4.00;3.58;;;;;;;22.96;71.13;99720.94;6132991;28;20055;-91
2022/06/24 05:50:49;;;;;;;6.50;3.80;;;;;;;23.00;69.54;99713.41;6127960;29;20047;-92
2022/06/24 05:57:17;;;;;;;6.38;3.92;;;;;;;22.90;71.61;99716.53;6137558;29;20071;-91
2022/06/24 06:00:19;;;;;;;6.15;3.78;;;;;;;22.79;73.33;99722.56;6140769;28;20043;-91
2022/06/24 06:03:22;;;;;;;3.63;3.33;;;;;;;22.67;74.37;99717.22;6140192;28;20501;-91
2022/06/24 06:06:24;;;;;;;4.30;3.97;;;;;;;22.57;76.49;99717.75;6133904;28;21669;-91
2022/06/24 06:09:26;;;;;;;5.10;3.38;;;;;;;22.53;77.92;99719.22;6131837;29;20047;-91
2022/06/24 06:12:28;;;;;;;3.97;3.30;;;;;;;22.51;77.50;99715.19;6128643;29;20043;-91
2022/06/24 06:15:31;;;;;;;6.60;4.13;;;;;;;22.50;77.29;99717.00;6131876;28;20070;-91
2022/06/24 06:18:33;;;;;;;4.15;3.70;;;;;;;22.51;76.38;99717.81;6140728;28;20458;-91
2022/06/24 06:21:35;;;;;;;4.35;3.55;;;;;;;22.53;75.68;99715.75;6121442;29;20044;-91
2022/06/24 06:24:37;;;;;;;4.45;4.05;;;;;;;22.60;74.32;99713.06;6129290;28;20054;-91
2022/06/24 06:27:39;;;;;;;3.88;3.50;;;;;;;22.77;72.87;99717.50;6137600;29;20067;-91
2022/06/24 06:30:41;;;;;;;4.22;3.83;;;;;;;22.98;70.33;99726.03;6132907;29;20058;-91
2022/06/24 06:33:43;;;;;;;5.15;3.83;;;;;;;23.19;69.00;99722.09;6128667;29;20048;-91
2022/06/24 06:36:46;;;;;;;4.05;3.75;;;;;;;23.34;69.28;99730.44;6132040;29;20046;-91
2022/06/24 06:39:48;;;;;;;3.90;3.58;;;;;;;23.46;69.34;99741.03;6132362;29;20047;-91
2022/06/24 06:42:53;;;;;;;4.90;3.80;;;;;;;23.46;67.73;99727.03;6123666;29;20096;-91
2022/06/24 06:45:55;;;;;;;4.00;3.60;;;;;;;23.42;67.14;99724.81;6123666;29;20048;-91
2022/06/24 06:48:57;;;;;;;4.93;3.97;;;;;;;23.40;67.29;99718.16;6127019;29;20036;-91
2022/06/24 06:52:00;;;;;;;4.28;3.63;;;;;;;23.41;67.12;99723.22;6128742;28;20054;-90
2022/06/24 06:55:02;;;;;;;8.40;4.07;;;;;;;23.46;67.54;99722.53;6131198;28;20050;-91
2022/06/24 06:58:05;;;;;;;4.18;3.38;;;;;;;23.61;63.17;99716.84;6124977;28;20040;-91
2022/06/24 07:01:07;;;;;;;6.25;3.67;;;;;;;23.81;61.51;99713.91;6128797;29;20049;-91
2022/06/24 07:04:09;;;;;;;3.50;3.20;;;;;;;23.94;59.60;99718.19;6133013;28;20054;-91
2022/06/24 07:07:11;;;;;;;4.53;3.55;;;;;;;23.85;60.07;99709.78;6130881;28;20575;-91
2022/06/24 07:10:13;;;;;;;6.20;3.25;;;;;;;23.86;60.83;99706.09;6127185;28;20492;-91
2022/06/24 07:13:16;;;;;;;7.15;3.70;;;;;;;23.83;60.75;99710.00;6122643;28;20063;-91
2022/06/24 07:16:18;;;;;;;5.10;3.45;;;;;;;23.90;59.64;99709.09;6132241;29;20154;-91
2022/06/24 07:19:20;;;;;;;4.15;2.90;;;;;;;24.12;57.62;99704.03;6135214;28;20043;-90
2022/06/24 07:22:22;;;;;;;5.38;3.10;;;;;;;24.08;60.20;99706.34;6122544;28;20035;-91
2022/06/24 07:25:24;;;;;;;3.63;2.60;;;;;;;24.16;58.71;99713.13;6124580;29;20058;-90
2022/06/24 07:28:26;;;;;;;6.28;2.97;;;;;;;24.32;58.03;99701.03;6124990;28;20036;-91
2022/06/24 07:31:28;;;;;;;5.13;2.85;;;;;;;24.42;59.04;99722.41;6131464;28;20043;-90
2022/06/24 07:34:30;;;;;;;4.57;3.05;;;;;;;24.55;56.73;99710.84;6120857;29;20046;-91
2022/06/24 07:37:32;;;;;;;6.18;3.30;;;;;;;24.54;56.90;99709.22;6117646;29;20596;-90
2022/06/24 07:40:34;;;;;;;4.47;2.70;;;;;;;24.45;57.61;99700.81;6122754;29;20090;-90
2022/06/24 07:43:37;;;;;;;4.88;2.85;;;;;;;24.58;59.05;99691.84;6128973;28;20532;-90
2022/06/24 07:46:39;;;;;;;4.53;2.70;;;;;;;24.66;60.21;99694.09;6126439;29;20047;-91
2022/06/24 07:49:41;;;;;;;4.15;2.42;;;;;;;24.78;60.69;99694.09;6132403;29;20126;-91
2022/06/24 07:52:43;;;;;;;4.18;2.75;;;;;;;24.99;58.06;99693.41;6128259;28;20048;-91
2022/06/24 07:59:06;;;;;;;3.35;2.08;;;;;;;25.26;56.61;99701.63;6128177;29;20047;-91
2022/06/24 08:02:08;;;;;;;2.90;2.53;;;;;;;25.26;55.88;99698.16;6123552;29;20067;-90
2022/06/24 08:05:10;;;;;;;3.25;2.70;;;;;;;25.22;55.06;99700.50;6130087;28;20050;-91
2022/06/24 08:08:12;;;;;;;4.03;2.75;;;;;;;25.19;58.25;99698.31;6131147;29;20513;-91
2022/06/24 08:11:14;;;;;;;5.35;2.90;;;;;;;25.15;58.54;99690.00;6127353;28;20047;-91
2022/06/24 08:14:17;;;;;;;4.90;2.72;;;;;;;25.21;60.98;99687.47;6124442;28;20050;-90
2022/06/24 08:17:20;;;;;;;3.35;2.60;;;;;;;25.25;60.28;99678.81;6129225;28;20047;-91
2022/06/24 08:20:22;;;;;;;3.25;2.47;;;;;;;25.39;59.24;99673.22;6126417;28;20614;-91
2022/06/24 08:23:24;;;;;;;4.80;2.65;;;;;;;25.47;59.45;99665.69;6123078;29;20050;-91
2022/06/24 08:26:27;;;;;;;4.55;2.38;;;;;;;25.70;58.08;99669.22;6122743;28;20510;-91
2022/06/24 08:29:29;;;;;;;4.07;2.33;;;;;;;25.88;56.42;99671.63;6116977;29;20526;-91
2022/06/24 08:32:31;;;;;;;4.55;2.53;;;;;;;25.90;55.32;99664.25;6124787;29;20055;-90
2022/06/24 08:35:34;;;;;;;6.25;2.40;;;;;;;26.25;55.52;99673.75;6118931;29;20047;-91
2022/06/24 08:38:36;;;;;;;3.85;2.20;;;;;;;26.67;57.99;99667.13;6117319;28;20062;-92
2022/06/24 08:41:43;;;;;;;3.95;2.25;;;;;;;27.32;53.58;99665.41;6122369;28;20044;-91
2022/06/24 08:44:51;;;;;;;2.80;2.13;;;;;;;27.76;57.24;99662.53;6106035;29;20086;-91
2022/06/24 08:47:54;;;;;;;3.90;1.90;;;;;;;28.11;51.36;99669.97;6125378;29;20039;-91
2022/06/24 08:50:57;;;;;;;5.38;1.90;;;;;;;28.21;53.05;99669.22;6127879;28;20043;-91
2022/06/24 08:54:02;;;;;;;2.65;2.10;;;;;;;28.29;49.74;99666.84;6120491;28;20498;-91
2022/06/24 08:57:25;;;;;;;5.97;2.03;;;;;;;28.35;49.06;99657.03;6121861;28;20680;-91
2022/06/24 09:00:27;;;;;;;4.55;2.05;;;;;;;28.44;50.02;99657.34;6131756;29;20036;-91
2022/06/24 09:03:29;;;;;;;2.13;1.63;;;;;;;28.52;48.93;99655.00;6132564;28;21164;-91
2022/06/24 09:06:38;;;;;;;4.25;1.85;;;;;;;28.63;48.54;99660.38;6127231;29;20578;-92
2022/06/24 09:09:40;;;;;;;2.45;1.80;;;;;;;28.65;48.99;99669.69;6118552;29;20047;-92
2022/06/24 09:12:45;;;;;;;3.22;1.67;;;;;;;28.49;47.68;99663.50;6121962;29;20074;-91
2022/06/24 09:15:52;;;;;;;2.50;1.50;;;;;;;27.97;51.35;99663.50;6132715;29;20639;-91
2022/06/24 09:18:57;;;;;;;7.10;1.70;;;;;;;27.49;54.56;99668.72;6131528;28;20067;-91
2022/06/24 09:22:00;;;;;;;5.60;1.88;;;;;;;27.01;55.96;99662.44;6126279;29;20622;-91
2022/06/24 09:25:08;;;;;;;2.40;1.75;;;;;;;26.71;58.29;99669.03;6128903;29;20299;-91
2022/06/24 09:28:10;;;;;;;2.75;1.77;;;;;;;26.47;57.36;99671.09;6129641;29;20372;-92
2022/06/24 09:31:12;;;;;;;5.32;2.17;;;;;;;26.16;60.41;99673.38;6125793;29;20036;-90
2022/06/24 09:34:17;;;;;;;4.32;1.90;;;;;;;25.88;63.04;99674.28;6126043;28;20035;-90
2022/06/24 09:37:35;;;;;;;11.70;2.33;;;;;;;25.61;63.92;99682.06;6128277;28;20046;-91
2022/06/24 09:40:40;;;;;;;3.35;1.83;;;;;;;25.39;64.70;99678.50;6123085;29;20040;-91
2022/06/24 09:43:43;;;;;;;9.25;2.47;;;;;;;25.06;67.64;99691.44;6124107;29;20051;-91
2022/06/24 09:46:47;;;;;;;6.47;2.38;;;;;;;24.68;72.15;99705.28;6124563;28;20043;-90
2022/06/24 09:49:56;;;;;;;2.20;2.05;;;;;;;24.02;81.56;99709.91;6124347;29;20040;-88
2022/06/24 09:53:00;;;;;;;6.80;2.95;;;;;;;23.43;93.89;99717.72;6126507;28;20043;-88
2022/06/24 09:56:04;;;;;;;4.18;3.00;;;;;;;22.97;100.00;99703.28;6123719;28;20079;-89
2022/06/24 10:02:29;;;;;;;6.00;4.30;;;;;;;22.42;100.00;99696.19;6125415;29;20441;-91
2022/06/24 10:05:37;;;;;;;6.30;4.07;;;;;;;22.42;100.00;99706.75;6122704;29;20078;-92
2022/06/24 10:08:41;;;;;;;4.85;4.10;;;;;;;22.67;100.00;99700.59;6127922;28;20477;-92
2022/06/24 10:12:04;;;;;;;4.53;3.42;;;;;;;23.19;100.00;99703.63;6131787;29;20524;-90
2022/06/24 10:15:07;;;;;;;6.53;4.10;;;;;;;23.61;100.00;99711.56;6126249;28;20039;-90
2022/06/24 10:18:10;;;;;;;4.88;3.40;;;;;;;23.81;100.00;99706.78;6124388;28;20651;-90
2022/06/24 10:21:12;;;;;;;5.93;4.03;;;;;;;23.80;100.00;99713.13;6120502;29;20043;-90
2022/06/24 10:24:16;;;;;;;5.75;2.88;;;;;;;23.78;100.00;99711.75;6144801;28;20051;-90
2022/06/24 10:27:18;;;;;;;6.20;3.05;;;;;;;23.74;100.00;99721.16;6127288;28;20043;-89
2022/06/24 10:30:47;;;;;;;5.50;3.22;;;;;;;23.67;100.00;99723.06;6123755;29;20039;-90
2022/06/24 10:33:54;;;;;;;4.90;3.65;;;;;;;23.73;100.00;99727.47;6131212;29;20039;-90
2022/06/24 10:36:56;;;;;;;3.90;2.97;;;;;;;23.86;100.00;99721.97;6125582;29;20035;-90
2022/06/24 10:40:00;;;;;;;4.07;2.90;;;;;;;23.94;100.00;99728.75;6121366;29;20110;-91
2022/06/24 10:43:05;;;;;;;4.82;3.10;;;;;;;23.98;100.00;99732.56;6123681;29;20493;-90
2022/06/24 10:46:12;;;;;;;7.97;3.42;;;;;;;24.01;100.00;99727.59;6125338;29;20174;-89
2022/06/24 10:49:14;;;;;;;3.95;2.90;;;;;;;23.91;100.00;99740.59;6122574;29;20535;-89
2022/06/24 10:52:33;;;;;;;4.90;3.17;;;;;;;23.72;100.00;99739.81;6128198;28;20047;-88
2022/06/24 10:55:37;;;;;;;5.82;3.17;;;;;;;23.62;100.00;99737.72;6130426;28;20055;-90
2022/06/24 10:58:39;;;;;;;5.43;3.15;;;;;;;23.71;100.00;99726.84;6124215;28;20071;-92
2022/06/24 11:01:43;;;;;;;3.83;3.05;;;;;;;24.05;100.00;99733.25;6120947;29;20190;-93
2022/06/24 11:04:45;;;;;;;6.75;3.70;;;;;;;24.22;100.00;99734.19;6128589;28;20508;-93
2022/06/24 11:07:49;;;;;;;5.55;3.00;;;;;;;24.14;100.00;99729.22;6129422;28;20544;-92
2022/06/24 11:10:51;;;;;;;5.10;3.33;;;;;;;24.00;100.00;99727.81;6116339;29;20821;-93
2022/06/24 11:13:56;;;;;;;4.47;3.17;;;;;;;23.89;100.00;99718.06;6124117;29;20054;-93
2022/06/24 11:17:07;;;;;;;5.72;3.05;;;;;;;23.90;100.00;99730.22;6113655;29;20098;-94
2022/06/24 11:20:11;;;;;;;6.20;3.20;;;;;;;24.04;100.00;99726.34;6117337;29;20118;-92
2022/06/24 11:23:17;;;;;;;3.50;2.80;;;;;;;24.18;100.00;99725.09;6123150;29;20063;-93
2022/06/24 11:26:20;;;;;;;5.07;3.20;;;;;;;24.21;100.00;99715.88;6124581;29;20604;-93
2022/06/24 11:29:23;;;;;;;7.35;3.30;;;;;;;24.23;100.00;99716.47;6123947;29;20426;-92
2022/06/24 11:32:25;;;;;;;4.63;3.03;;;;;;;24.42;100.00;99717.94;6125586;29;20043;-92
2022/06/24 11:35:28;;;;;;;5.97;2.95;;;;;;;24.64;100.00;99712.84;6140517;28;20235;-92
2022/06/24 11:38:32;;;;;;;7.85;3.30;;;;;;;24.84;100.00;99711.66;6132259;28;20487;-92
2022/06/24 11:41:46;;;;;;;5.00;2.65;;;;;;;25.02;100.00;99700.91;6114734;29;20504;-91
2022/06/24 11:44:55;;;;;;;4.10;2.83;;;;;;;25.23;100.00;99690.72;6123539;29;20904;-92
2022/06/24 11:47:57;;;;;;;6.72;3.13;;;;;;;25.46;100.00;99695.06;6130360;29;20038;-91
2022/06/24 11:50:59;;;;;;;5.15;2.80;;;;;;;25.69;100.00;99694.09;6127471;29;20039;-91
2022/06/24 11:54:08;;;;;;;5.53;2.58;;;;;;;25.94;100.00;99681.28;6126096;29;20066;-91
2022/06/24 11:57:12;;;;;;;4.05;2.58;;;;;;;26.27;100.00;99682.25;6124900;29;20215;-92
2022/06/24 12:00:14;;;;;;;4.85;2.50;;;;;;;26.56;98.17;99682.94;6132211;28;20044;-91
2022/06/24 12:03:16;;;;;;;3.25;1.90;;;;;;;26.78;96.14;99682.91;6111733;29;20047;-91
2022/06/24 12:06:21;;;;;;;4.30;2.00;;;;;;;26.99;91.69;99677.81;6132895;28;20055;-91
2022/06/24 12:09:23;;;;;;;3.30;2.65;;;;;;;27.11;91.81;99675.81;6117032;29;20252;-91
2022/06/24 12:12:26;;;;;;;3.38;1.95;;;;;;;27.25;89.56;99674.38;6115545;29;20040;-91
2022/06/24 12:15:48;;;;;;;5.25;2.22;;;;;;;27.39;87.33;99680.06;6131293;28;20180;-91
2022/06/24 12:18:53;;;;;;;3.80;2.08;;;;;;;27.51;89.03;99676.47;6138614;28;20621;-91
2022/06/24 12:22:11;;;;;;;3.22;1.70;;;;;;;27.58;83.87;99677.06;6150877;28;20106;-91
2022/06/24 12:25:13;;;;;;;4.35;2.08;;;;;;;27.66;84.98;99676.56;6136174;28;20070;-91
2022/06/24 12:28:22;;;;;;;5.00;2.20;;;;;;;27.82;82.47;99677.50;6154267;28;20043;-91
2022/06/24 12:31:24;;;;;;;4.25;2.42;;;;;;;28.02;82.84;99668.84;6138413;28;20259;-91
2022/06/24 12:34:38;;;;;;;2.47;1.75;;;;;;;28.18;79.92;99675.88;6146393;28;20058;-92
2022/06/24 12:37:51;;;;;;;3.60;1.55;;;;;;;28.38;81.01;99672.50;6155024;28;20063;-92
2022/06/24 12:41:14;;;;;;;2.92;1.65;;;;;;;28.62;79.65;99664.06;6145664;28;20062;-93
2022/06/24 12:44:17;;;;;;;2.67;1.58;;;;;;;28.86;75.05;99662.53;6136785;28;20078;-92
2022/06/24 12:50:40;;;;;;;5.80;2.00;;;;;;;29.24;74.16;99665.81;6158673;28;20069;-92
2022/06/24 12:53:52;;;;;;;3.95;1.83;;;;;;;29.41;70.12;99645.03;6156338;28;20539;-92
2022/06/24 12:56:55;;;;;;;2.67;1.60;;;;;;;29.46;73.74;99656.75;6115879;29;20288;-94
2022/06/24 12:59:57;;;;;;;4.32;1.60;;;;;;;29.52;69.58;99645.03;6132536;29;20035;-93
2022/06/24 13:02:59;;;;;;;4.35;1.58;;;;;;;29.49;66.29;99645.56;6129346;28;20063;-93
2022/06/24 13:06:02;;;;;;;4.10;1.70;;;;;;;29.48;66.14;99646.63;6133375;29;20047;-93
2022/06/24 13:09:06;;;;;;;2.10;1.67;;;;;;;29.46;66.41;99638.09;6127479;28;20044;-94
2022/06/24 13:12:08;;;;;;;3.35;1.40;;;;;;;29.38;65.25;99647.44;6123766;29;20616;-93
2022/06/24 13:15:12;;;;;;;4.10;1.60;;;;;;;29.36;68.41;99642.34;6121836;29;20048;-95
2022/06/24 13:18:14;;;;;;;3.55;1.70;;;;;;;29.40;64.67;99640.75;6112360;29;20055;-95
2022/06/24 13:21:17;;;;;;;2.53;1.58;;;;;;;29.37;68.17;99643.97;6131085;28;20039;-94
2022/06/24 13:24:19;;;;;;;3.90;1.58;;;;;;;29.52;67.04;99647.72;6119878;29;20071;-94
2022/06/24 13:27:21;;;;;;;3.80;1.40;;;;;;;29.61;66.42;99648.75;6122638;29;20138;-94
2022/06/24 13:30:24;;;;;;;3.13;1.48;;;;;;;29.95;62.33;99648.97;6123827;29;20062;-93
2022/06/24 13:33:26;;;;;;;2.78;1.58;;;;;;;30.72;56.80;99646.00;6132097;29;20040;-94
2022/06/24 13:36:28;;;;;;;3.20;1.50;;;;;;;31.48;55.46;99658.09;6132113;29;20039;-94
2022/06/24 13:39:30;;;;;;;2.88;1.50;;;;;;;31.86;53.46;99652.09;6122123;29;20047;-94
2022/06/24 13:42:32;;;;;;;2.75;1.45;;;;;;;31.95;56.18;99656.56;6122726;28;20047;-94
2022/06/24 13:45:35;;;;;;;4.28;1.70;;;;;;;31.77;54.38;99644.66;6122793;29;20050;-93
2022/06/24 13:48:37;;;;;;;2.65;1.50;;;;;;;31.34;51.69;99644.50;6130843;29;20079;-94
2022/06/24 13:51:39;;;;;;;3.60;1.63;;;;;;;30.78;54.53;99650.25;6129827;29;20047;-93
2022/06/24 13:54:41;;;;;;;1.75;1.38;;;;;;;30.23;55.25;99650.22;6122019;28;20039;-94
2022/06/24 13:57:43;;;;;;;3.75;1.60;;;;;;;29.91;59.01;99652.44;6141798;28;20054;-93
2022/06/24 14:00:46;;;;;;;3.22;1.80;;;;;;;29.58;57.29;99654.63;6121740;29;20034;-93
2022/06/24 14:03:48;;;;;;;2.38;1.38;;;;;;;29.51;59.22;99662.09;6120102;29;20048;-93
2022/06/24 14:06:50;;;;;;;4.93;1.58;;;;;;;29.55;55.50;99647.97;6131529;29;20063;-93
2022/06/24 14:09:52;;;;;;;3.78;1.42;;;;;;;29.76;57.34;99655.94;6125058;29;20042;-94
2022/06/24 14:13:14;;;;;;;3.70;1.70;;;;;;;30.22;55.83;99656.63;6135559;28;20040;-93
2022/06/24 14:16:16;;;;;;;4.22;1.80;;;;;;;30.27;53.52;99659.31;6123461;29;20032;-92
2022/06/24 14:19:38;;;;;;;3.90;1.88;;;;;;;29.60;68.42;99650.63;6142694;28;20047;-88
2022/06/24 14:24:31;;;;;;;24.52;4.95;;;;;;;27.95;82.21;99666.44;6128777;29;20047;-88
2022/06/24 14:26:02;;;;;;;5.88;2.65;;;;;;;25.76;100.00;99649.69;6123367;28;20517;-93
2022/06/24 14:29:04;;;;;;;5.45;2.47;;;;;;;25.03;100.00;99643.44;6122935;29;20510;-92
2022/06/24 14:32:06;;;;;;;3.30;2.28;;;;;;;24.57;100.00;99650.50;6128200;29;20043;-92
2022/06/24 14:35:09;;;;;;;4.13;2.55;;;;;;;24.38;100.00;99648.00;6128736;28;20046;-94
2022/06/24 14:41:31;;;;;;;5.03;3.00;;;;;;;24.93;100.00;99636.13;6125324;29;20032;-93
2022/06/24 14:44:33;;;;;;;3.95;2.95;;;;;;;25.33;100.00;99638.69;6127888;28;20050;-92